Terminal Aerodrome Forecast
Issued by NWS Louisville, KY

Home | Current Version | Previous Version | Text Only | Print | Product List | Glossary On
Versions: 1 2 3 4 5 6 7 8 9 10 11 12 13 14 15 16 17 18
000
FTUS43 KLMK 260500
TAFBWG
TAF
KBWG 260520Z 2606/2706 00000KT P6SM SKC
     FM260700 00000KT 4SM BR FEW250
      TEMPO 2610/2613 1SM BR
     FM261400 06005KT P6SM SCT040=

USA.gov is the U.S. government's official web portal to all federal, state and local government web resources and services.